Aviation Digital Data Service (ADDS)

Output produced by METARs form (2023 UTC 23 September 2014)
found at http://aviationweather.gov/adds/metars/
 
METAR text: KSPB 231953Z AUTO 12005KT 9SM BKN045 OVC060 19/15 A2983 RMK AO2 SLP102 T01940150
Conditions at: KSPB (SCAPPOOSE , OR, US) observed 1953 UTC 23 September 2014
Temperature: 19.4°C (67°F)
Dewpoint: 15.0°C (59°F) [RH = 76%]
Pressure (altimeter): 29.83 inches Hg (1010.2 mb)
[Sea-level pressure: 1010.2 mb]
Winds: from the ESE (120 degrees) at 6 MPH (5 knots; 2.6 m/s)
Visibility: 9 miles (14 km)
Ceiling: 4500 feet AGL
Clouds: broken clouds at 4500 feet AGL
overcast cloud deck at 6000 feet AGL
Weather: automated observation with no human augmentation;
there may or may not be significant weather present at this time

METAR text: KSPB 231929Z AUTO 13005KT 9SM SCT012 BKN046 OVC055 19/16 A2984 RMK AO2 T01890156
Conditions at: KSPB (SCAPPOOSE , OR, US) observed 1929 UTC 23 September 2014
Temperature: 18.9°C (66°F)
Dewpoint: 15.6°C (60°F) [RH = 81%]
Pressure (altimeter): 29.84 inches Hg (1010.6 mb)
Winds: from the SE (130 degrees) at 6 MPH (5 knots; 2.6 m/s)
Visibility: 9 miles (14 km)
Ceiling: 4600 feet AGL
Clouds: scattered clouds at 1200 feet AGL
broken clouds at 4600 feet AGL
overcast cloud deck at 5500 feet AGL
Weather: automated observation with no human augmentation;
there may or may not be significant weather present at this time

METAR text: KSPB 231914Z AUTO 12005KT 10SM FEW009 BKN013 OVC055 19/16 A2984 RMK AO2 T01890156
Conditions at: KSPB (SCAPPOOSE , OR, US) observed 1914 UTC 23 September 2014
Temperature: 18.9°C (66°F)
Dewpoint: 15.6°C (60°F) [RH = 81%]
Pressure (altimeter): 29.84 inches Hg (1010.6 mb)
Winds: from the ESE (120 degrees) at 6 MPH (5 knots; 2.6 m/s)
Visibility: 10 or more miles (16+ km)
Ceiling: 1300 feet AGL
Clouds: few clouds at 900 feet AGL
broken clouds at 1300 feet AGL
overcast cloud deck at 5500 feet AGL
Weather: automated observation with no human augmentation;
there may or may not be significant weather present at this time

METAR text: KSPB 231853Z AUTO 12003KT 9SM FEW007 OVC049 18/16 A2984 RMK AO2 SLP104 T01830161
Conditions at: KSPB (SCAPPOOSE , OR, US) observed 1853 UTC 23 September 2014
Temperature: 18.3°C (65°F)
Dewpoint: 16.1°C (61°F) [RH = 87%]
Pressure (altimeter): 29.84 inches Hg (1010.6 mb)
[Sea-level pressure: 1010.4 mb]
Winds: from the ESE (120 degrees) at 3 MPH (3 knots; 1.6 m/s)
Visibility: 9 miles (14 km)
Ceiling: 4900 feet AGL
Clouds: few clouds at 700 feet AGL
overcast cloud deck at 4900 feet AGL
Weather: automated observation with no human augmentation;
there may or may not be significant weather present at this time

METAR text: KSPB 231844Z AUTO 10004KT 9SM FEW007 OVC048 18/16 A2984 RMK AO2 T01780161
Conditions at: KSPB (SCAPPOOSE , OR, US) observed 1844 UTC 23 September 2014
Temperature: 17.8°C (64°F)
Dewpoint: 16.1°C (61°F) [RH = 90%]
Pressure (altimeter): 29.84 inches Hg (1010.6 mb)
Winds: from the E (100 degrees) at 5 MPH (4 knots; 2.1 m/s)
Visibility: 9 miles (14 km)
Ceiling: 4800 feet AGL
Clouds: few clouds at 700 feet AGL
overcast cloud deck at 4800 feet AGL
Weather: automated observation with no human augmentation;
there may or may not be significant weather present at this time